Time;durP1;ratioP1;P1;durP2;ratioP2;P2;SDS_P1;SDS_P2;PMS_P1;PMS_P2;Temp;Humidity;BMP_temperature;BMP_pressure;BME280_temperature;BME280_humidity;BME280_pressure;Samples;Min_cycle;Max_cycle;Signal;HPM_P1;HPM_P2
2022/12/15 00:39:01;;;;;;;17.80;11.07;;;-1.10;99.90;;;;;;5004641;28;20049;-80
2022/12/15 00:41:30;;;;;;;19.80;13.27;;;-1.10;99.90;;;;;;5009731;28;20045;-80
2022/12/15 00:43:58;;;;;;;21.10;12.93;;;-1.10;99.90;;;;;;5010119;28;20131;-80
2022/12/15 01:20:17;;;;;;;24.85;14.38;;;-1.20;99.90;;;;;;5027723;28;20293;-80
2022/12/15 01:22:49;;;;;;;18.15;14.02;;;-1.20;99.90;;;;;;5027425;28;20049;-80
2022/12/15 01:25:18;;;;;;;22.63;13.20;;;-1.20;99.90;;;;;;5010437;28;20243;-80
2022/12/15 01:27:47;;;;;;;21.42;12.45;;;-1.20;99.90;;;;;;5010162;28;20068;-80
2022/12/15 01:30:17;;;;;;;20.88;12.85;;;-1.30;99.90;;;;;;4994208;28;20325;-80
2022/12/15 01:32:45;;;;;;;20.85;13.43;;;-1.30;99.90;;;;;;5027391;28;20069;-80
2022/12/15 01:35:13;;;;;;;23.88;16.30;;;-1.30;99.90;;;;;;5027620;28;20053;-80
2022/12/15 01:37:41;;;;;;;21.98;13.95;;;-1.30;99.90;;;;;;5020449;28;20064;-80
2022/12/15 01:43:03;;;;;;;20.08;13.90;;;-1.30;99.90;;;;;;5010351;28;20050;-80
2022/12/15 01:45:30;;;;;;;18.15;12.38;;;-1.30;99.90;;;;;;5007976;28;20616;-79
2022/12/15 01:48:11;;;;;;;22.13;14.23;;;-1.30;99.90;;;;;;5010624;28;20361;-80
2022/12/15 01:50:43;;;;;;;18.08;10.85;;;-1.30;99.90;;;;;;5008287;28;20057;-80
2022/12/15 01:53:14;;;;;;;19.63;12.93;;;-1.30;99.90;;;;;;4989888;28;20049;-80
2022/12/15 01:55:45;;;;;;;18.38;14.60;;;-1.30;99.90;;;;;;4989426;28;20061;-80
2022/12/15 01:58:19;;;;;;;15.75;12.43;;;-1.40;99.90;;;;;;4990319;28;20057;-80
2022/12/15 02:00:46;;;;;;;19.30;13.85;;;-1.40;99.90;;;;;;4989915;28;20051;-80
2022/12/15 02:03:14;;;;;;;14.82;12.13;;;-1.30;99.90;;;;;;4973662;28;20062;-80
2022/12/15 02:05:41;;;;;;;18.17;11.18;;;-1.40;99.90;;;;;;5007186;28;20065;-80
2022/12/15 02:08:10;;;;;;;21.67;12.90;;;-1.30;99.90;;;;;;5010067;28;20073;-80
2022/12/15 02:10:58;;;;;;;23.58;12.25;;;-1.40;99.90;;;;;;5009915;28;20049;-80
2022/12/15 02:13:38;;;;;;;20.77;14.50;;;-1.40;99.90;;;;;;4991046;28;20790;-80
2022/12/15 02:16:15;;;;;;;17.02;12.48;;;-1.30;99.90;;;;;;5008421;28;20456;-80
2022/12/15 02:18:42;;;;;;;21.90;13.48;;;-1.40;99.90;;;;;;5010104;28;20058;-79
2022/12/15 02:21:19;;;;;;;22.85;13.07;;;-1.40;99.90;;;;;;5009309;28;20073;-80
2022/12/15 02:23:50;;;;;;;18.10;13.38;;;-1.40;99.90;;;;;;5009189;28;20057;-80
2022/12/15 02:26:54;;;;;;;10.40;8.25;;;-1.40;99.90;;;;;;5008426;28;20053;-80
2022/12/15 02:29:52;;;;;;;21.63;14.82;;;-1.40;99.90;;;;;;5007343;28;20045;-80
2022/12/15 02:32:32;;;;;;;23.25;11.82;;;-1.50;99.90;;;;;;5008271;28;20041;-80
2022/12/15 02:35:09;;;;;;;20.55;14.48;;;-1.40;99.90;;;;;;5010095;28;20054;-80
2022/12/15 02:37:39;;;;;;;15.27;12.40;;;-1.50;99.90;;;;;;5005802;28;20053;-80
2022/12/15 02:40:09;;;;;;;18.42;12.57;;;-1.40;99.90;;;;;;5007231;28;20046;-80
2022/12/15 02:43:04;;;;;;;10.52;8.80;;;-1.40;99.90;;;;;;5008267;28;20640;-80
2022/12/15 02:45:53;;;;;;;16.42;9.45;;;-1.40;99.90;;;;;;5005799;28;20050;-80
2022/12/15 02:48:42;;;;;;;17.80;10.98;;;-1.50;99.90;;;;;;5005884;28;20072;-80
2022/12/15 02:51:21;;;;;;;19.42;13.15;;;-1.50;99.90;;;;;;5007629;28;20061;-80
2022/12/15 02:54:05;;;;;;;19.85;13.70;;;-1.50;99.90;;;;;;5009331;28;20053;-79
2022/12/15 02:57:04;;;;;;;18.83;12.43;;;-1.50;99.90;;;;;;5009342;28;20045;-80
2022/12/15 02:59:40;;;;;;;17.23;11.95;;;-1.50;99.90;;;;;;5006704;28;20037;-80
2022/12/15 03:02:11;;;;;;;11.48;9.60;;;-1.60;99.90;;;;;;5010255;28;20058;-80
2022/12/15 03:04:41;;;;;;;26.88;17.30;;;-1.60;99.90;;;;;;5007757;28;20056;-80
2022/12/15 03:07:09;;;;;;;19.25;13.82;;;-1.60;99.90;;;;;;5008189;28;20450;-80
2022/12/15 03:09:37;;;;;;;19.67;12.43;;;-1.60;99.90;;;;;;5009122;28;20061;-80
2022/12/15 03:12:04;;;;;;;19.88;14.63;;;-1.60;99.90;;;;;;5009098;28;20046;-80
2022/12/15 03:14:32;;;;;;;17.35;12.00;;;-1.60;99.90;;;;;;4990765;28;20114;-80
2022/12/15 03:17:00;;;;;;;21.48;14.52;;;-1.60;99.90;;;;;;5007864;28;20050;-80
2022/12/15 03:19:28;;;;;;;19.10;12.15;;;-1.60;99.90;;;;;;4994294;28;20046;-80
2022/12/15 03:21:56;;;;;;;18.25;12.23;;;-1.60;99.90;;;;;;5028227;28;20049;-80
2022/12/15 03:24:24;;;;;;;19.20;11.98;;;-1.60;99.90;;;;;;5026614;28;20049;-80
2022/12/15 03:26:52;;;;;;;23.27;13.80;;;-1.60;99.90;;;;;;5027333;28;20069;-80
2022/12/15 03:29:19;;;;;;;19.73;14.85;;;-1.70;99.90;;;;;;5027348;28;20045;-80
2022/12/15 03:31:47;;;;;;;19.38;12.57;;;-1.60;99.90;;;;;;4994292;28;20440;-80
2022/12/15 03:34:16;;;;;;;23.42;13.13;;;-1.60;99.90;;;;;;5011247;28;20056;-80
2022/12/15 03:36:44;;;;;;;22.77;11.98;;;-1.60;99.90;;;;;;5027719;28;20049;-80
2022/12/15 03:39:12;;;;;;;15.50;12.07;;;-1.60;99.90;;;;;;4997168;28;20053;-80
2022/12/15 03:41:40;;;;;;;22.15;14.40;;;-1.60;99.90;;;;;;5006970;28;20046;-80
2022/12/15 03:44:08;;;;;;;19.80;13.63;;;-1.60;99.90;;;;;;5006274;28;20045;-81
2022/12/15 03:46:36;;;;;;;23.58;12.82;;;-1.60;99.90;;;;;;5008858;28;20425;-80
2022/12/15 03:49:04;;;;;;;19.90;13.40;;;-1.60;99.90;;;;;;5008443;28;20061;-80
2022/12/15 03:51:31;;;;;;;25.13;15.68;;;-1.60;99.90;;;;;;5006730;28;20425;-80
2022/12/15 03:53:59;;;;;;;19.85;11.95;;;-1.60;99.90;;;;;;5007087;28;20045;-80
2022/12/15 03:56:26;;;;;;;17.90;11.43;;;-1.60;99.90;;;;;;5000981;28;20338;-80
2022/12/15 03:58:54;;;;;;;23.20;13.73;;;-1.70;99.90;;;;;;4996388;28;20053;-80
2022/12/15 04:01:31;;;;;;;22.50;14.98;;;-1.70;99.90;;;;;;4981946;28;20054;-80
2022/12/15 04:04:00;;;;;;;27.08;16.50;;;-1.70;99.90;;;;;;4994381;28;21105;-80
2022/12/15 04:06:29;;;;;;;19.95;13.93;;;-1.60;99.90;;;;;;4991673;28;20064;-80
2022/12/15 04:08:57;;;;;;;25.85;17.13;;;-1.70;99.90;;;;;;5020037;28;20060;-80
2022/12/15 04:11:24;;;;;;;18.15;14.50;;;-1.60;99.90;;;;;;5026527;28;20049;-80
2022/12/15 04:13:52;;;;;;;31.10;16.15;;;-1.60;99.90;;;;;;5025725;28;20461;-81
2022/12/15 04:16:19;;;;;;;24.27;15.95;;;-1.60;99.90;;;;;;5002853;28;20409;-81
2022/12/15 04:20:07;;;;;;;25.92;14.63;;;-1.60;99.90;;;;;;4990244;28;20054;-80
2022/12/15 04:21:39;;;;;;;25.65;14.80;;;-1.60;99.90;;;;;;5026465;28;20033;-80
2022/12/15 05:33:32;;;;;;;24.83;13.57;;;-1.80;99.90;;;;;;4998266;28;20042;-81
2022/12/15 05:36:00;;;;;;;29.65;15.55;;;-1.80;99.90;;;;;;4999675;28;20053;-81
2022/12/15 05:38:28;;;;;;;27.75;16.20;;;-1.80;99.90;;;;;;5005047;28;20348;-81
2022/12/15 05:40:59;;;;;;;22.23;13.63;;;-1.80;99.90;;;;;;5003894;28;20065;-81
2022/12/15 05:43:27;;;;;;;28.02;16.52;;;-1.80;99.90;;;;;;4992355;28;20061;-81
2022/12/15 05:45:56;;;;;;;22.38;13.90;;;-1.80;99.90;;;;;;4999541;28;20046;-81
2022/12/15 05:48:26;;;;;;;19.73;14.05;;;-1.80;99.90;;;;;;4990083;28;20049;-81
2022/12/15 05:50:54;;;;;;;28.40;17.25;;;-1.80;99.90;;;;;;4990268;28;20053;-81
2022/12/15 05:53:22;;;;;;;28.70;16.80;;;-1.80;99.90;;;;;;4989579;28;20042;-80
2022/12/15 05:55:49;;;;;;;25.08;14.57;;;-1.90;99.90;;;;;;4990043;28;20425;-81
2022/12/15 05:58:17;;;;;;;26.30;15.43;;;-2.00;99.90;;;;;;4981460;28;20054;-81
2022/12/15 06:00:44;;;;;;;28.08;16.73;;;-1.90;99.90;;;;;;5010122;28;20072;-81
2022/12/15 06:03:12;;;;;;;27.88;15.95;;;-1.90;99.90;;;;;;5009698;28;20064;-81
2022/12/15 06:05:39;;;;;;;29.30;16.10;;;-1.80;99.90;;;;;;5009805;28;20050;-80
2022/12/15 06:08:07;;;;;;;31.13;19.38;;;-1.90;99.90;;;;;;5010358;28;20046;-79
2022/12/15 06:10:34;;;;;;;24.35;17.83;;;-2.00;99.90;;;;;;5010466;28;20057;-79
2022/12/15 06:13:03;;;;;;;29.10;15.60;;;-2.00;99.90;;;;;;4992461;28;20258;-79
2022/12/15 06:15:30;;;;;;;28.40;15.55;;;-2.00;99.90;;;;;;5007342;28;20060;-78
2022/12/15 06:17:58;;;;;;;21.33;15.15;;;-2.00;99.90;;;;;;5008547;28;20057;-80
2022/12/15 06:20:25;;;;;;;22.98;13.30;;;-2.10;99.90;;;;;;5020302;28;20053;-81
2022/12/15 06:22:53;;;;;;;27.30;17.73;;;-2.10;99.90;;;;;;5030377;28;20049;-81
2022/12/15 06:25:21;;;;;;;27.38;16.23;;;-2.10;99.90;;;;;;5011794;28;20042;-79
2022/12/15 06:27:48;;;;;;;23.95;15.82;;;-2.10;99.90;;;;;;5029677;28;20053;-80
2022/12/15 06:30:17;;;;;;;24.50;13.60;;;-2.00;99.90;;;;;;5027384;28;20045;-80
2022/12/15 06:32:45;;;;;;;22.50;13.65;;;-2.10;99.90;;;;;;5021353;28;20042;-80
2022/12/15 06:35:17;;;;;;;26.25;19.13;;;-2.10;99.90;;;;;;5009221;28;20057;-81
2022/12/15 06:37:45;;;;;;;29.75;19.20;;;-2.10;99.90;;;;;;5008281;28;20057;-81
2022/12/15 06:40:13;;;;;;;31.98;17.20;;;-2.00;99.90;;;;;;4991596;28;20463;-80
2022/12/15 06:42:40;;;;;;;34.88;19.73;;;-2.00;99.90;;;;;;5010210;28;20575;-81
2022/12/15 06:45:08;;;;;;;34.42;19.25;;;-2.10;99.90;;;;;;4975553;28;20042;-82
2022/12/15 06:47:36;;;;;;;30.63;16.77;;;-2.00;99.90;;;;;;4992958;28;20046;-82
2022/12/15 06:50:04;;;;;;;30.27;17.23;;;-1.90;99.90;;;;;;5008913;28;20057;-80
2022/12/15 06:52:32;;;;;;;30.05;17.20;;;-2.10;99.90;;;;;;5020342;28;20072;-82
2022/12/15 06:55:00;;;;;;;32.85;19.55;;;-2.10;99.90;;;;;;4995741;28;20065;-82
2022/12/15 06:57:28;;;;;;;29.77;15.68;;;-2.00;99.90;;;;;;5011483;28;20045;-82
2022/12/15 06:59:55;;;;;;;31.63;17.20;;;-2.00;99.90;;;;;;5018487;28;20041;-82
2022/12/15 07:02:23;;;;;;;32.55;17.95;;;-2.00;99.90;;;;;;5008610;28;20056;-82
2022/12/15 07:04:55;;;;;;;27.67;19.48;;;-2.00;99.90;;;;;;5008247;28;20061;-82
2022/12/15 07:07:24;;;;;;;27.02;16.90;;;-2.00;99.90;;;;;;5008529;28;20050;-82
2022/12/15 07:09:51;;;;;;;31.90;17.90;;;-2.00;99.90;;;;;;5007816;28;20049;-82
2022/12/15 07:12:18;;;;;;;27.67;16.60;;;-2.00;99.90;;;;;;5008228;28;20045;-82
2022/12/15 07:14:48;;;;;;;25.45;15.90;;;-2.00;99.90;;;;;;4991249;28;20081;-82
2022/12/15 07:17:20;;;;;;;28.85;17.58;;;-1.90;99.90;;;;;;5008066;28;20375;-83
2022/12/15 07:19:50;;;;;;;30.05;17.15;;;-1.90;99.90;;;;;;5013647;28;20040;-82
2022/12/15 07:22:19;;;;;;;32.67;19.33;;;-1.90;99.90;;;;;;5028979;28;20061;-82
2022/12/15 07:24:47;;;;;;;25.70;15.98;;;-1.90;99.90;;;;;;5027949;28;20045;-82
2022/12/15 07:27:14;;;;;;;30.67;17.05;;;-2.00;99.90;;;;;;5011587;28;20048;-82
2022/12/15 07:29:42;;;;;;;28.35;15.98;;;-2.00;99.90;;;;;;5025345;28;20048;-82
2022/12/15 07:32:10;;;;;;;27.52;17.50;;;-1.90;99.90;;;;;;5021683;28;20043;-82
2022/12/15 07:34:38;;;;;;;26.55;18.67;;;-1.90;99.90;;;;;;4989988;28;20058;-82
2022/12/15 07:37:05;;;;;;;34.92;17.35;;;-1.90;99.90;;;;;;4988347;28;20039;-82
2022/12/15 07:39:33;;;;;;;25.58;17.55;;;-1.90;99.90;;;;;;4987741;28;20053;-82
2022/12/15 07:42:01;;;;;;;24.88;16.33;;;-1.90;99.90;;;;;;4991276;28;20049;-82
2022/12/15 07:44:30;;;;;;;31.48;16.90;;;-1.70;99.90;;;;;;5007119;28;20041;-82
2022/12/15 07:46:58;;;;;;;30.80;22.27;;;-1.80;99.90;;;;;;5007624;28;20065;-82
2022/12/15 07:49:26;;;;;;;29.15;17.80;;;-1.80;99.90;;;;;;5007726;28;20049;-82
2022/12/15 07:51:57;;;;;;;33.83;18.20;;;-1.70;99.90;;;;;;5008392;28;20041;-82
2022/12/15 07:54:24;;;;;;;29.40;18.75;;;-1.70;99.90;;;;;;5007518;28;20041;-82
2022/12/15 07:56:52;;;;;;;28.50;18.17;;;-1.70;99.90;;;;;;4991124;28;20038;-82
2022/12/15 07:59:20;;;;;;;29.20;17.25;;;-1.80;99.90;;;;;;4995170;28;20049;-82
2022/12/15 08:01:48;;;;;;;36.38;17.20;;;-1.90;99.90;;;;;;4999104;28;20045;-82
2022/12/15 08:04:16;;;;;;;31.27;20.75;;;-1.80;99.90;;;;;;5009207;28;20053;-82
2022/12/15 08:06:44;;;;;;;29.23;19.00;;;-1.80;99.90;;;;;;5007737;28;20046;-82
2022/12/15 08:09:14;;;;;;;28.40;16.85;;;-1.90;99.90;;;;;;5008546;28;20038;-82
2022/12/15 08:11:42;;;;;;;31.33;18.85;;;-1.80;99.90;;;;;;4974291;28;20061;-82
2022/12/15 08:14:09;;;;;;;30.55;17.52;;;-1.80;99.90;;;;;;5007361;28;20046;-82
2022/12/15 08:16:46;;;;;;;30.75;16.50;;;-1.70;99.90;;;;;;5006965;28;20057;-82
2022/12/15 08:19:16;;;;;;;27.77;12.88;;;-1.60;99.90;;;;;;5007988;28;20046;-82
2022/12/15 08:21:46;;;;;;;30.85;18.58;;;-1.60;99.90;;;;;;5026207;28;20250;-82
2022/12/15 08:24:18;;;;;;;22.30;14.52;;;-1.70;99.90;;;;;;5025996;28;20042;-82
2022/12/15 08:26:48;;;;;;;25.90;14.23;;;-1.70;99.90;;;;;;5026856;28;20050;-83
2022/12/15 08:29:17;;;;;;;28.60;20.33;;;-1.70;99.90;;;;;;5025501;28;20068;-83
2022/12/15 08:32:08;;;;;;;28.40;18.33;;;-1.70;99.90;;;;;;5024509;28;20334;-83
2022/12/15 08:34:37;;;;;;;28.13;16.23;;;-1.60;99.90;;;;;;5007233;28;20046;-83
2022/12/15 08:37:07;;;;;;;28.50;18.33;;;-1.80;99.90;;;;;;5007082;28;20069;-83
2022/12/15 08:39:34;;;;;;;36.10;18.17;;;-1.80;99.90;;;;;;5000996;28;20056;-84
2022/12/15 08:42:03;;;;;;;36.30;18.40;;;-1.70;99.90;;;;;;5010828;28;20080;-83
2022/12/15 08:44:33;;;;;;;30.27;17.75;;;-1.70;99.90;;;;;;5011482;28;20120;-83
2022/12/15 08:47:00;;;;;;;31.92;19.50;;;-1.60;99.90;;;;;;5012418;28;20046;-83
2022/12/15 08:49:28;;;;;;;25.83;16.33;;;-1.50;99.90;;;;;;4999876;28;20259;-83
2022/12/15 08:51:56;;;;;;;34.78;19.33;;;-1.50;99.90;;;;;;4992536;28;20065;-83
2022/12/15 08:54:23;;;;;;;24.08;16.15;;;-1.40;99.90;;;;;;5009558;28;20096;-83
2022/12/15 08:56:51;;;;;;;35.85;21.05;;;-1.40;99.90;;;;;;5008199;28;20046;-83
2022/12/15 08:59:19;;;;;;;27.75;17.75;;;-1.40;99.90;;;;;;4976112;28;20050;-83
2022/12/15 09:01:47;;;;;;;36.50;19.92;;;-1.30;99.90;;;;;;5000221;28;20030;-83
2022/12/15 09:04:16;;;;;;;31.10;18.60;;;-1.30;99.90;;;;;;4972663;28;20065;-83
2022/12/15 09:06:44;;;;;;;29.83;18.33;;;-1.30;99.90;;;;;;4973170;28;20047;-83
2022/12/15 09:09:18;;;;;;;25.52;18.15;;;-1.20;99.90;;;;;;4988551;28;20062;-83
2022/12/15 09:11:46;;;;;;;29.67;19.15;;;-1.20;99.90;;;;;;4972140;28;20055;-83
2022/12/15 09:14:14;;;;;;;23.92;15.05;;;-1.30;99.90;;;;;;4987813;28;20050;-83
2022/12/15 09:16:43;;;;;;;29.50;20.40;;;-1.30;99.90;;;;;;4991546;28;20073;-84
2022/12/15 09:19:11;;;;;;;28.05;19.60;;;-1.30;99.90;;;;;;4991096;28;20087;-83
2022/12/15 09:21:41;;;;;;;25.38;17.92;;;-1.20;99.90;;;;;;4975992;28;20053;-84
2022/12/15 09:24:12;;;;;;;30.77;17.25;;;-1.20;99.90;;;;;;4990169;28;20047;-84
2022/12/15 09:26:52;;;;;;;29.13;18.20;;;-1.20;99.90;;;;;;4991761;28;20057;-83
2022/12/15 09:29:20;;;;;;;24.67;17.23;;;-1.20;99.90;;;;;;4989581;28;20049;-81
2022/12/15 09:31:47;;;;;;;38.08;17.48;;;-1.20;99.90;;;;;;4990044;28;20051;-83
2022/12/15 09:34:15;;;;;;;27.77;17.48;;;-1.30;99.90;;;;;;5010266;28;20072;-83
2022/12/15 09:36:43;;;;;;;29.10;20.15;;;-1.20;99.90;;;;;;4993539;28;20077;-82
2022/12/15 09:39:11;;;;;;;40.65;22.42;;;-1.10;99.90;;;;;;5010770;28;20053;-82
2022/12/15 09:41:52;;;;;;;14.15;11.95;;;-1.10;99.90;;;;;;5010447;28;20058;-83
2022/12/15 09:44:23;;;;;;;27.33;17.13;;;-1.10;99.90;;;;;;5008038;28;20045;-82
2022/12/15 09:47:01;;;;;;;35.72;18.08;;;-1.20;99.90;;;;;;4994297;28;20046;-82
2022/12/15 09:49:52;;;;;;;30.35;20.25;;;-1.20;99.90;;;;;;4993577;28;20061;-82
2022/12/15 09:52:27;;;;;;;23.93;16.90;;;-1.10;99.90;;;;;;4989718;28;20039;-82
2022/12/15 09:54:57;;;;;;;34.17;19.83;;;-1.10;99.90;;;;;;4990251;28;20293;-82
2022/12/15 09:57:47;;;;;;;30.15;20.77;;;-1.10;99.90;;;;;;4993000;28;20041;-82
2022/12/15 10:00:21;;;;;;;36.22;20.02;;;-1.00;99.90;;;;;;4998426;28;20050;-82
2022/12/15 10:02:59;;;;;;;28.70;18.10;;;-1.00;99.90;;;;;;5020629;28;20064;-82
2022/12/15 10:05:47;;;;;;;35.80;19.35;;;-1.10;99.90;;;;;;5010987;28;20046;-82
2022/12/15 10:08:42;;;;;;;22.17;16.58;;;-1.00;99.90;;;;;;5024517;28;20060;-83
2022/12/15 10:11:16;;;;;;;30.35;15.88;;;-1.00;99.90;;;;;;5020675;28;20073;-82
2022/12/15 10:13:53;;;;;;;28.73;19.33;;;-0.90;99.90;;;;;;5006316;28;20054;-83
2022/12/15 10:16:35;;;;;;;26.73;14.43;;;-0.90;99.90;;;;;;5025692;28;20064;-82
2022/12/15 10:19:18;;;;;;;31.30;21.85;;;-0.90;99.90;;;;;;5022462;28;20049;-82
2022/12/15 10:21:46;;;;;;;29.40;19.20;;;-0.90;99.90;;;;;;5003897;28;20095;-82
2022/12/15 10:24:20;;;;;;;27.83;20.55;;;-0.80;99.90;;;;;;5015587;28;20045;-83
2022/12/15 10:27:47;;;;;;;32.63;17.70;;;-0.80;99.90;;;;;;4995618;28;20062;-82
2022/12/15 10:30:16;;;;;;;35.33;20.77;;;-0.60;99.90;;;;;;4942687;28;20085;-82
2022/12/15 10:33:00;;;;;;;33.40;23.08;;;-0.50;99.90;;;;;;4979773;28;20057;-82
2022/12/15 10:35:34;;;;;;;34.83;20.27;;;-0.50;99.90;;;;;;5018179;28;20072;-82
2022/12/15 10:38:19;;;;;;;35.80;21.17;;;-0.50;99.90;;;;;;4987085;28;20054;-82
2022/12/15 10:41:00;;;;;;;31.25;18.40;;;-0.60;99.90;;;;;;5000511;28;20085;-82
2022/12/15 10:43:34;;;;;;;32.55;19.55;;;-0.60;99.90;;;;;;4982756;28;20544;-82
2022/12/15 10:46:22;;;;;;;32.17;18.08;;;-0.50;99.90;;;;;;4981996;28;20049;-82
2022/12/15 10:48:58;;;;;;;27.77;19.67;;;-0.50;99.90;;;;;;4983125;28;20049;-82
2022/12/15 10:51:30;;;;;;;32.78;22.88;;;-0.70;99.90;;;;;;4972772;28;20064;-82
2022/12/15 10:54:08;;;;;;;33.25;21.48;;;-0.70;99.90;;;;;;5003855;28;20057;-82
2022/12/15 10:56:48;;;;;;;35.67;19.02;;;-0.60;99.90;;;;;;5003107;28;20045;-82
2022/12/15 10:59:28;;;;;;;38.08;20.83;;;-0.60;99.90;;;;;;5002877;28;20058;-82
2022/12/15 11:02:15;;;;;;;38.78;21.88;;;-0.60;99.90;;;;;;4998743;28;20054;-82
2022/12/15 11:04:56;;;;;;;32.97;17.45;;;-0.50;99.90;;;;;;4995453;28;20053;-82
2022/12/15 11:07:30;;;;;;;29.65;18.27;;;-0.70;99.90;;;;;;5005781;28;20054;-81
2022/12/15 11:09:59;;;;;;;40.40;22.85;;;-0.70;99.90;;;;;;5003262;28;20422;-81
2022/12/15 11:15:23;;;;;;;35.92;19.20;;;-0.70;99.90;;;;;;5004273;28;20054;-81
2022/12/15 11:18:20;;;;;;;36.25;21.15;;;-0.60;99.90;;;;;;5004659;28;20061;-81
2022/12/15 11:21:03;;;;;;;31.67;18.02;;;-0.40;99.90;;;;;;5007399;28;20053;-81
2022/12/15 11:24:05;;;;;;;28.02;20.98;;;-0.40;99.90;;;;;;4986113;28;20059;-82
2022/12/15 11:26:33;;;;;;;35.92;19.58;;;-0.20;99.90;;;;;;5002930;28;20290;-81
2022/12/15 11:29:12;;;;;;;35.83;20.27;;;-0.20;99.90;;;;;;5003769;28;20045;-81
2022/12/15 11:31:44;;;;;;;36.80;21.35;;;-0.10;99.90;;;;;;5003729;28;20050;-81
2022/12/15 11:34:19;;;;;;;42.35;24.60;;;0.20;99.90;;;;;;4984336;28;20055;-81
2022/12/15 11:37:05;;;;;;;35.22;20.23;;;0.30;99.90;;;;;;5003585;28;20086;-81
2022/12/15 11:40:10;;;;;;;42.42;25.85;;;0.30;99.90;;;;;;5004935;28;20072;-82
2022/12/15 11:43:05;;;;;;;31.08;17.80;;;0.00;99.90;;;;;;5001242;28;20065;-81
2022/12/15 11:45:46;;;;;;;40.42;22.38;;;0.10;99.90;;;;;;5001259;28;20038;-81
2022/12/15 11:48:16;;;;;;;;;;;-0.10;99.90;;;;;;5004970;28;20061;-81
2022/12/15 11:51:10;;;;;;;30.65;17.90;;;0.00;99.90;;;;;;5003086;28;19932;-81
2022/12/15 11:54:03;;;;;;;25.95;15.57;;;0.10;99.90;;;;;;4987204;28;20050;-81
2022/12/15 11:57:09;;;;;;;30.80;20.65;;;0.00;99.90;;;;;;5004119;28;20042;-81
2022/12/15 11:59:56;;;;;;;30.55;19.40;;;-0.20;99.90;;;;;;4962205;28;20054;-81
2022/12/15 12:02:48;;;;;;;37.80;22.70;;;-0.10;99.90;;;;;;4992293;28;20054;-81
2022/12/15 12:05:18;;;;;;;;;;;0.00;99.90;;;;;;4983478;28;20061;-81
2022/12/15 12:07:49;;;;;;;28.10;17.77;;;0.00;99.90;;;;;;5000705;28;19925;-82
2022/12/15 12:10:28;;;;;;;32.60;18.23;;;-0.10;99.90;;;;;;4987812;28;20058;-81
2022/12/15 12:13:03;;;;;;;41.42;22.08;;;-0.10;99.90;;;;;;5002246;28;20053;-81
2022/12/15 12:15:53;;;;;;;34.63;22.88;;;-0.20;99.90;;;;;;5006779;28;20521;-82
2022/12/15 12:18:36;;;;;;;35.22;21.33;;;-0.30;99.90;;;;;;5001379;28;20057;-82
2022/12/15 12:21:29;;;;;;;35.85;22.75;;;-0.30;99.90;;;;;;5015468;28;20048;-81
2022/12/15 12:24:02;;;;;;;;;;;-0.40;99.90;;;;;;5008863;28;20052;-81
2022/12/15 12:26:56;;;;;;;47.58;21.35;;;-0.30;99.90;;;;;;5008175;28;19932;-80
2022/12/15 12:29:37;;;;;;;35.70;22.40;;;-0.30;99.90;;;;;;5006181;28;20057;-80
2022/12/15 12:32:17;;;;;;;33.22;17.00;;;-0.20;99.90;;;;;;5007536;28;20077;-81
2022/12/15 12:34:59;;;;;;;34.67;18.55;;;-0.20;99.90;;;;;;5007352;28;20045;-81
2022/12/15 12:37:59;;;;;;;38.70;24.23;;;-0.20;99.90;;;;;;5007374;28;20052;-81
2022/12/15 12:40:42;;;;;;;22.83;13.90;;;-0.20;99.90;;;;;;5007005;28;20057;-81
2022/12/15 12:43:19;;;;;;;41.63;23.00;;;-0.20;99.90;;;;;;5006128;28;20049;-81
2022/12/15 12:45:57;;;;;;;39.17;21.90;;;-0.20;99.90;;;;;;5007240;28;20042;-81
2022/12/15 12:48:38;;;;;;;39.60;21.00;;;0.00;99.90;;;;;;5007883;28;20054;-81
2022/12/15 12:51:23;;;;;;;30.70;19.23;;;0.10;99.90;;;;;;4988572;28;20065;-81
2022/12/15 12:53:52;;;;;;;26.98;18.65;;;0.20;99.90;;;;;;5007905;28;20628;-81
2022/12/15 12:56:32;;;;;;;29.35;18.60;;;0.30;99.90;;;;;;5007878;28;20050;-81
2022/12/15 12:59:08;;;;;;;30.52;20.02;;;0.20;99.90;;;;;;5007780;28;20049;-82
2022/12/15 13:01:36;;;;;;;24.08;17.77;;;0.20;99.90;;;;;;5005910;28;20049;-82
2022/12/15 13:04:32;;;;;;;35.72;19.63;;;0.20;99.90;;;;;;4986789;28;20042;-83
2022/12/15 13:07:03;;;;;;;31.75;18.60;;;0.20;99.90;;;;;;4997588;28;20057;-82
2022/12/15 13:09:40;;;;;;;31.33;18.27;;;0.10;99.90;;;;;;5005829;28;20056;-82
2022/12/15 13:12:44;;;;;;;32.30;16.13;;;0.00;99.90;;;;;;5005868;28;20429;-82
2022/12/15 13:15:27;;;;;;;7.05;6.32;;;0.00;99.90;;;;;;5005761;28;20060;-82
2022/12/15 13:18:21;;;;;;;15.77;10.60;;;-0.30;99.90;;;;;;5005730;28;20058;-82
2022/12/15 13:20:53;;;;;;;27.23;16.33;;;-0.40;99.90;;;;;;5019775;28;20053;-82
2022/12/15 13:23:24;;;;;;;30.60;19.17;;;-0.40;99.90;;;;;;4989655;28;20057;-82
2022/12/15 13:25:58;;;;;;;31.95;19.95;;;-0.40;99.90;;;;;;4989924;28;20050;-82
2022/12/15 13:28:35;;;;;;;29.63;14.98;;;-0.40;99.90;;;;;;5006069;28;20504;-82
2022/12/15 13:31:15;;;;;;;27.00;18.98;;;-0.50;99.90;;;;;;5007051;28;20054;-82
2022/12/15 13:34:11;;;;;;;25.85;17.75;;;-0.40;99.90;;;;;;5001861;28;20065;-82
2022/12/15 13:36:39;;;;;;;33.35;17.75;;;-0.50;99.90;;;;;;4986159;28;20422;-82
2022/12/15 13:39:15;;;;;;;24.45;18.20;;;-0.50;99.90;;;;;;5000182;28;20057;-82
2022/12/15 13:41:56;;;;;;;24.08;18.10;;;-0.70;99.90;;;;;;4987697;28;20050;-82
2022/12/15 13:44:47;;;;;;;27.38;16.60;;;-0.70;99.90;;;;;;5004676;28;20052;-82
2022/12/15 13:47:22;;;;;;;36.88;20.75;;;-0.60;99.90;;;;;;4988909;28;20210;-82
2022/12/15 13:50:05;;;;;;;35.80;20.70;;;-0.70;99.90;;;;;;5006302;28;20061;-82
2022/12/15 13:52:51;;;;;;;34.38;18.40;;;-0.70;99.90;;;;;;4988487;28;20432;-82
2022/12/15 13:55:58;;;;;;;27.85;17.50;;;-0.70;99.90;;;;;;5006419;28;20658;-82
2022/12/15 13:58:29;;;;;;;30.30;18.30;;;-0.70;99.90;;;;;;4985996;28;20054;-82
2022/12/15 14:00:57;;;;;;;31.20;19.15;;;-0.70;99.90;;;;;;4988281;28;20054;-82
2022/12/15 14:03:25;;;;;;;17.50;12.18;;;-0.80;99.90;;;;;;4983800;28;20055;-82
2022/12/15 14:05:56;;;;;;;27.10;16.30;;;-0.80;99.90;;;;;;4986638;28;20046;-82
2022/12/15 14:08:28;;;;;;;33.05;20.48;;;-0.90;99.90;;;;;;5004327;28;20054;-82
2022/12/15 14:10:59;;;;;;;30.75;18.98;;;-1.00;99.90;;;;;;5006934;28;20394;-82
2022/12/15 14:13:47;;;;;;;24.45;16.50;;;-0.90;99.90;;;;;;4986020;28;20060;-82
2022/12/15 14:16:21;;;;;;;36.22;19.17;;;-0.90;99.90;;;;;;4974722;28;20049;-83
2022/12/15 14:19:07;;;;;;;35.50;17.98;;;-0.90;99.90;;;;;;5005423;28;20057;-82
2022/12/15 14:21:36;;;;;;;33.92;20.33;;;-1.00;99.90;;;;;;5003955;28;20049;-82
2022/12/15 14:24:20;;;;;;;35.25;19.95;;;-1.00;99.90;;;;;;4988696;28;20046;-83
2022/12/15 14:27:05;;;;;;;28.35;18.27;;;-1.10;99.90;;;;;;4988898;28;20057;-82
2022/12/15 14:29:33;;;;;;;32.05;17.35;;;-1.10;99.90;;;;;;5002872;28;20050;-82
2022/12/15 14:32:01;;;;;;;33.50;19.33;;;-1.20;99.90;;;;;;4967991;28;20050;-82
2022/12/15 14:34:34;;;;;;;38.60;18.92;;;-1.10;99.90;;;;;;4993627;28;20410;-82
2022/12/15 14:37:11;;;;;;;34.22;18.83;;;-1.30;99.90;;;;;;4988337;28;20421;-82
2022/12/15 14:39:44;;;;;;;33.47;18.35;;;-1.30;99.90;;;;;;5004025;28;20086;-82
2022/12/15 14:42:37;;;;;;;40.85;21.98;;;-1.30;99.90;;;;;;5004665;28;20064;-82
2022/12/15 14:45:05;;;;;;;40.78;21.50;;;-1.20;99.90;;;;;;5003954;28;20046;-82
2022/12/15 14:47:51;;;;;;;35.35;19.38;;;-1.30;99.90;;;;;;4984545;28;20072;-81
2022/12/15 14:50:45;;;;;;;37.72;21.58;;;-1.20;99.90;;;;;;4996317;28;20049;-82
2022/12/15 14:53:16;;;;;;;45.88;22.25;;;-1.20;99.90;;;;;;5002815;28;20061;-82
2022/12/15 14:55:43;;;;;;;36.30;21.20;;;-1.30;99.90;;;;;;5008844;28;20058;-82
2022/12/15 14:58:31;;;;;;;32.92;20.63;;;-1.30;99.90;;;;;;4985561;28;20690;-81
2022/12/15 15:01:02;;;;;;;34.83;18.10;;;-1.20;99.90;;;;;;4994870;28;20046;-81
2022/12/15 15:03:38;;;;;;;36.60;18.50;;;-1.30;99.90;;;;;;5004364;28;20417;-81
2022/12/15 15:06:11;;;;;;;29.80;19.02;;;-1.30;99.90;;;;;;5018354;28;20061;-81
2022/12/15 15:08:45;;;;;;;32.78;18.70;;;-1.40;99.90;;;;;;4987001;28;20050;-82
2022/12/15 15:11:31;;;;;;;35.85;19.00;;;-1.40;99.90;;;;;;5017422;28;20512;-82
2022/12/15 15:14:26;;;;;;;41.38;18.52;;;-1.40;99.90;;;;;;4984801;28;20407;-82
2022/12/15 15:17:04;;;;;;;39.05;19.48;;;-1.50;99.90;;;;;;4991863;28;20050;-82
2022/12/15 15:19:35;;;;;;;37.60;20.35;;;-1.50;99.90;;;;;;5020258;28;20053;-82
2022/12/15 15:22:24;;;;;;;39.92;21.05;;;-1.50;99.90;;;;;;4985109;28;20481;-81
2022/12/15 15:24:55;;;;;;;36.40;16.67;;;-1.50;99.90;;;;;;5005201;28;20590;-82
2022/12/15 15:27:29;;;;;;;42.95;18.60;;;-1.50;99.90;;;;;;5005570;28;20497;-82
2022/12/15 15:30:17;;;;;;;32.67;18.17;;;-1.50;99.90;;;;;;5003458;28;20069;-82
2022/12/15 15:32:56;;;;;;;20.15;11.82;;;-1.50;99.90;;;;;;5004099;28;20033;-82